Time;durP1;ratioP1;P1;durP2;ratioP2;P2;SDS_P1;SDS_P2;PMS_P1;PMS_P2;Temp;Humidity;BMP_temperature;BMP_pressure;BME280_temperature;BME280_humidity;BME280_pressure;Samples;Min_cycle;Max_cycle;Signal;HPM_P1;HPM_P2
2022/09/22 00:02:09;;;;;;;;;;;;;;;21.17;46.08;102446.22;5047621;28;19931;-86
2022/09/22 00:04:36;;;;;;;;;;;;;;;21.16;46.04;102445.34;5046744;28;19924;-86
2022/09/22 00:07:01;;;;;;;;;;;;;;;21.16;46.03;102448.03;5029097;28;20317;-86
2022/09/22 00:09:26;;;;;;;;;;;;;;;21.13;45.92;102440.16;5014075;28;19955;-86
2022/09/22 00:11:52;;;;;;;;;;;;;;;21.14;45.92;102432.94;5012651;28;19972;-87
2022/09/22 00:14:23;;;;;;;;;;;;;;;21.11;46.25;102432.19;5013813;28;19928;-87
2022/09/22 00:16:51;;;;;;;;;;;;;;;21.12;46.01;102430.34;5028580;28;19920;-87
2022/09/22 00:19:18;;;;;;;;;;;;;;;21.13;46.12;102434.78;5029677;28;19928;-87
2022/09/22 00:21:44;;;;;;;;;;;;;;;21.09;46.56;102433.25;5046869;28;20444;-86
2022/09/22 00:24:09;;;;;;;;;;;;;;;21.09;46.03;102433.25;5035977;28;19924;-87
2022/09/22 00:26:35;;;;;;;;;;;;;;;21.08;46.12;102428.81;5049434;28;19924;-87
2022/09/22 00:29:01;;;;;;;;;;;;;;;21.09;46.45;102434.09;5052042;28;20422;-87
2022/09/22 00:31:27;;;;;;;;;;;;;;;21.08;46.24;102429.66;5033206;28;20185;-88
2022/09/22 00:33:52;;;;;;;;;;;;;;;21.07;46.15;102430.63;5031241;28;20438;-87
2022/09/22 00:36:19;;;;;;;;;;;;;;;21.05;46.20;102427.19;5048713;28;21423;-88
2022/09/22 00:38:45;;;;;;;;;;;;;;;21.03;46.05;102422.88;5048898;28;19920;-87
2022/09/22 00:41:15;;;;;;;;;;;;;;;21.03;46.21;102425.56;5030448;28;19920;-87
2022/09/22 00:43:40;;;;;;;;;;;;;;;21.03;46.47;102421.03;5048441;28;19925;-87
2022/09/22 00:46:09;;;;;;;;;;;;;;;21.03;46.08;102415.63;5013005;28;19925;-87
2022/09/22 00:48:38;;;;;;;;;;;;;;;21.03;46.00;102429.09;5048088;28;20374;-87
2022/09/22 00:51:05;;;;;;;;;;;;;;;20.99;46.15;102416.81;5047799;28;19958;-88
2022/09/22 00:53:30;;;;;;;;;;;;;;;21.02;46.07;102416.59;5047356;28;19916;-86
2022/09/22 00:56:16;;;;;;;;;;;;;;;20.99;46.17;102411.41;5045617;28;19916;-87
2022/09/22 00:58:44;;;;;;;;;;;;;;;20.95;46.27;102417.97;5047487;28;19916;-87
2022/09/22 01:01:09;;;;;;;;;;;;;;;20.91;46.61;102409.22;5047038;28;19966;-87
2022/09/22 01:03:38;;;;;;;;;;;;;;;20.92;46.13;102407.38;5046916;28;20390;-87
2022/09/22 01:06:05;;;;;;;;;;;;;;;20.89;46.25;102404.91;5027739;28;20323;-88
2022/09/22 01:08:32;;;;;;;;;;;;;;;20.90;46.10;102406.63;5028087;28;19981;-88
2022/09/22 01:10:58;;;;;;;;;;;;;;;20.92;46.21;102404.69;5047346;28;20662;-88
2022/09/22 01:13:26;;;;;;;;;;;;;;;20.90;46.70;102396.72;5061705;28;19931;-87
2022/09/22 01:16:10;;;;;;;;;;;;;;;20.89;46.69;102402.19;5047470;28;20065;-87
2022/09/22 01:18:47;;;;;;;;;;;;;;;20.87;46.72;102399.63;5045211;28;20004;-87
2022/09/22 01:21:24;;;;;;;;;;;;;;;20.84;46.78;102391.72;5026554;28;19956;-88
2022/09/22 01:23:56;;;;;;;;;;;;;;;20.84;46.44;102394.41;5042399;28;20497;-88
2022/09/22 01:26:21;;;;;;;;;;;;;;;20.85;46.69;102385.38;5044249;28;20609;-87
2022/09/22 01:28:49;;;;;;;;;;;;;;;20.83;46.62;102387.31;5059927;28;19927;-87
2022/09/22 01:31:20;;;;;;;;;;;;;;;20.83;46.47;102379.25;5048686;28;19920;-88
2022/09/22 01:33:50;;;;;;;;;;;;;;;20.83;46.20;102376.53;5028480;28;20299;-88
2022/09/22 01:36:22;;;;;;;;;;;;;;;20.83;46.67;102383.75;5044877;28;20376;-88
2022/09/22 01:38:50;;;;;;;;;;;;;;;20.81;46.42;102377.56;5046030;28;20451;-87
2022/09/22 01:41:22;;;;;;;;;;;;;;;20.80;46.19;102374.03;5020932;28;20730;-87
2022/09/22 01:43:50;;;;;;;;;;;;;;;20.77;46.79;102368.84;5045759;28;19924;-87
2022/09/22 01:46:23;;;;;;;;;;;;;;;20.78;46.63;102359.78;5044901;28;20383;-87
2022/09/22 01:48:51;;;;;;;;;;;;;;;20.76;46.79;102362.59;5028683;28;19920;-87
2022/09/22 01:51:26;;;;;;;;;;;;;;;20.74;46.71;102359.16;5043912;28;19932;-87
2022/09/22 01:54:22;;;;;;;;;;;;;;;20.74;46.68;102361.84;5020380;28;19916;-87
2022/09/22 01:56:51;;;;;;;;;;;;;;;20.74;46.30;102359.16;5026775;28;20237;-87
2022/09/22 01:59:21;;;;;;;;;;;;;;;20.73;46.81;102356.53;5045402;28;19912;-87
2022/09/22 02:01:49;;;;;;;;;;;;;;;20.73;46.79;102346.66;5046082;28;20013;-87
2022/09/22 02:04:25;;;;;;;;;;;;;;;20.72;46.17;102349.44;5046082;28;20023;-87
2022/09/22 02:06:57;;;;;;;;;;;;;;;20.70;46.70;102346.81;5044329;28;19927;-89
2022/09/22 02:09:24;;;;;;;;;;;;;;;20.69;46.20;102339.72;5026964;28;19919;-86
2022/09/22 02:11:49;;;;;;;;;;;;;;;20.68;46.27;102348.75;5025759;28;20441;-87
2022/09/22 02:14:15;;;;;;;;;;;;;;;20.67;46.82;102341.63;5044597;28;19924;-87
2022/09/22 02:16:41;;;;;;;;;;;;;;;20.67;46.61;102340.78;5026546;28;19924;-87
2022/09/22 02:19:12;;;;;;;;;;;;;;;20.66;46.73;102342.56;5006740;28;20385;-86
2022/09/22 02:21:38;;;;;;;;;;;;;;;20.67;46.76;102346.16;5043992;28;19967;-87
2022/09/22 02:24:03;;;;;;;;;;;;;;;20.67;46.82;102338.06;5025946;28;20351;-87
2022/09/22 02:26:30;;;;;;;;;;;;;;;20.66;46.28;102339.88;5007710;28;20348;-88
2022/09/22 02:28:59;;;;;;;;;;;;;;;20.66;46.71;102331.81;5044469;28;20336;-87
2022/09/22 02:31:27;;;;;;;;;;;;;;;20.64;46.81;102341.84;5044829;28;19927;-87
2022/09/22 02:33:53;;;;;;;;;;;;;;;20.63;46.78;102337.41;5026848;28;20372;-88
2022/09/22 02:36:18;;;;;;;;;;;;;;;20.61;46.39;102342.88;5058973;28;21294;-87
2022/09/22 02:38:48;;;;;;;;;;;;;;;20.65;46.75;102334.59;5058647;28;19987;-88
2022/09/22 02:41:21;;;;;;;;;;;;;;;20.63;46.67;102338.25;5025047;28;19980;-87
2022/09/22 02:43:53;;;;;;;;;;;;;;;20.58;46.69;102332.31;5044574;28;19927;-87
2022/09/22 02:46:41;;;;;;;;;;;;;;;20.58;46.63;102337.69;5059805;28;19921;-87
2022/09/22 02:49:10;;;;;;;;;;;;;;;20.58;46.58;102336.84;5040741;28;19943;-88
2022/09/22 02:51:38;;;;;;;;;;;;;;;20.56;46.83;102331.56;5026220;28;19916;-88
2022/09/22 02:54:05;;;;;;;;;;;;;;;20.55;46.44;102328.94;5009145;28;19920;-87
2022/09/22 02:56:30;;;;;;;;;;;;;;;20.54;46.37;102330.78;5044570;28;20393;-88
2022/09/22 02:58:55;;;;;;;;;;;;;;;20.55;46.36;102332.50;5043947;28;19931;-87
2022/09/22 03:01:23;;;;;;;;;;;;;;;20.56;46.73;102325.28;5042090;28;20595;-88
2022/09/22 03:03:51;;;;;;;;;;;;;;;20.52;46.30;102330.00;5057736;28;20019;-88
2022/09/22 03:06:17;;;;;;;;;;;;;;;20.52;46.40;102323.75;5025606;28;20046;-87
2022/09/22 03:08:42;;;;;;;;;;;;;;;20.54;46.63;102325.41;5024621;28;20020;-88
2022/09/22 03:11:07;;;;;;;;;;;;;;;20.51;46.71;102322.03;5020465;28;19920;-88
2022/09/22 03:13:32;;;;;;;;;;;;;;;20.52;46.81;102315.69;5057732;28;20277;-88
2022/09/22 03:16:07;;;;;;;;;;;;;;;20.54;46.24;102317.31;5043963;28;19943;-87
2022/09/22 03:18:32;;;;;;;;;;;;;;;20.48;46.29;102306.94;5029498;28;21658;-88
2022/09/22 03:20:57;;;;;;;;;;;;;;;20.43;46.42;102307.22;5042620;28;19970;-88
2022/09/22 03:23:22;;;;;;;;;;;;;;;20.45;46.72;102310.69;5025928;28;19975;-88
2022/09/22 03:25:48;;;;;;;;;;;;;;;20.46;46.84;102314.22;5037616;28;20568;-88
2022/09/22 03:28:13;;;;;;;;;;;;;;;20.47;46.20;102305.22;5026510;28;20215;-87
2022/09/22 03:30:39;;;;;;;;;;;;;;;20.43;46.37;102311.75;5042471;28;20130;-87
2022/09/22 03:33:04;;;;;;;;;;;;;;;20.39;46.89;102299.47;5042009;28;20027;-87
2022/09/22 03:35:29;;;;;;;;;;;;;;;20.41;46.39;102301.09;5024604;28;19939;-87
2022/09/22 03:37:54;;;;;;;;;;;;;;;20.44;46.33;102297.34;5042610;28;19951;-87
2022/09/22 03:40:21;;;;;;;;;;;;;;;20.43;46.71;102301.84;5025869;28;21134;-86
2022/09/22 03:42:46;;;;;;;;;;;;;;;20.40;46.37;102304.75;5024822;28;20460;-87
2022/09/22 03:45:11;;;;;;;;;;;;;;;20.41;46.51;102301.09;5044053;28;19985;-87
2022/09/22 03:47:37;;;;;;;;;;;;;;;20.39;46.53;102307.53;5043605;28;20680;-82
2022/09/22 03:50:02;;;;;;;;;;;;;;;20.38;46.52;102305.81;5025741;28;19926;-82
2022/09/22 03:52:27;;;;;;;;;;;;;;;20.38;46.60;102295.88;5045019;28;20524;-82
2022/09/22 03:54:53;;;;;;;;;;;;;;;20.38;46.62;102295.03;5041778;28;20354;-84
2022/09/22 03:57:18;;;;;;;;;;;;;;;20.35;46.68;102292.56;5020904;28;20165;-86
2022/09/22 03:59:44;;;;;;;;;;;;;;;20.34;46.61;102294.38;5028009;28;20269;-86
2022/09/22 04:02:09;;;;;;;;;;;;;;;20.31;46.73;102291.88;5009751;28;21503;-86
2022/09/22 04:04:35;;;;;;;;;;;;;;;20.29;46.71;102291.97;5025783;28;19935;-86
2022/09/22 04:07:00;;;;;;;;;;;;;;;20.29;46.36;102291.97;5044347;28;19912;-86
2022/09/22 04:09:28;;;;;;;;;;;;;;;20.32;46.37;102290.03;5060472;28;20303;-87
2022/09/22 04:11:53;;;;;;;;;;;;;;;20.32;46.43;102290.03;5026151;28;19921;-87
2022/09/22 04:14:19;;;;;;;;;;;;;;;20.33;46.83;102289.09;5027450;28;19920;-88
2022/09/22 04:16:44;;;;;;;;;;;;;;;20.31;46.36;102291.88;5028877;28;20031;-87
2022/09/22 04:19:10;;;;;;;;;;;;;;;20.26;46.62;102286.78;5019219;28;19920;-87
2022/09/22 04:21:49;;;;;;;;;;;;;;;20.28;46.78;102295.63;5045796;28;19923;-87
2022/09/22 04:24:15;;;;;;;;;;;;;;;20.27;46.59;102290.34;5025466;28;20591;-87
2022/09/22 04:26:41;;;;;;;;;;;;;;;20.29;46.33;102283.91;5025437;28;19932;-87
2022/09/22 04:29:06;;;;;;;;;;;;;;;20.26;46.84;102285.94;5024404;28;19921;-87
2022/09/22 04:31:31;;;;;;;;;;;;;;;20.24;46.35;102282.47;5022341;28;20015;-87
2022/09/22 04:33:56;;;;;;;;;;;;;;;20.23;46.70;102286.09;5028084;28;20051;-87
2022/09/22 04:36:22;;;;;;;;;;;;;;;20.24;46.33;102285.16;5009010;28;19924;-87
2022/09/22 04:38:47;;;;;;;;;;;;;;;20.21;46.78;102280.81;5042847;28;20143;-87
2022/09/22 04:41:12;;;;;;;;;;;;;;;20.23;46.33;102281.59;5026999;28;19924;-87
2022/09/22 04:43:38;;;;;;;;;;;;;;;20.23;46.23;102281.59;5028354;28;19951;-86
2022/09/22 04:46:03;;;;;;;;;;;;;;;20.24;46.56;102279.78;5020881;28;20243;-87
2022/09/22 04:48:29;;;;;;;;;;;;;;;20.23;46.21;102288.78;5022660;28;20939;-87
2022/09/22 04:50:54;;;;;;;;;;;;;;;20.21;46.30;102280.81;5030024;28;20188;-87
2022/09/22 04:53:19;;;;;;;;;;;;;;;20.15;46.43;102278.50;5012068;28;19925;-86
2022/09/22 04:55:44;;;;;;;;;;;;;;;20.17;46.48;102275.72;5029933;28;19916;-86
2022/09/22 04:58:10;;;;;;;;;;;;;;;20.17;46.25;102273.03;5030692;28;19964;-87
2022/09/22 05:00:37;;;;;;;;;;;;;;;20.19;46.52;102273.81;5027268;28;19921;-87
2022/09/22 05:03:07;;;;;;;;;;;;;;;20.17;46.25;102278.41;5024952;28;19990;-87
2022/09/22 05:05:33;;;;;;;;;;;;;;;20.15;46.41;102273.13;5021450;28;19932;-86
2022/09/22 05:07:58;;;;;;;;;;;;;;;20.13;46.63;102275.94;5032937;28;20007;-87
2022/09/22 05:10:24;;;;;;;;;;;;;;;20.15;46.53;102275.81;5020907;28;19981;-86
2022/09/22 05:12:52;;;;;;;;;;;;;;;20.13;46.46;102281.31;5021672;28;19927;-87
2022/09/22 05:15:17;;;;;;;;;;;;;;;20.13;46.19;102275.09;5022666;28;20381;-87
2022/09/22 05:17:50;;;;;;;;;;;;;;;20.14;46.42;102283.03;5024701;28;19980;-87
2022/09/22 05:20:16;;;;;;;;;;;;;;;20.11;46.49;102275.16;5014548;28;19927;-88
2022/09/22 05:22:42;;;;;;;;;;;;;;;20.10;46.70;102275.25;5019784;28;21242;-87
2022/09/22 05:25:12;;;;;;;;;;;;;;;20.10;46.31;102281.50;5016426;28;19929;-87
2022/09/22 05:27:44;;;;;;;;;;;;;;;20.11;46.37;102275.16;5016770;28;19916;-86
2022/09/22 05:30:10;;;;;;;;;;;;;;;20.10;46.27;102286.00;5020900;28;19921;-88
2022/09/22 05:32:40;;;;;;;;;;;;;;;20.10;46.29;102283.31;5019894;28;20320;-87
2022/09/22 05:35:06;;;;;;;;;;;;;;;20.27;46.08;102283.13;5036631;28;19917;-87
2022/09/22 05:37:31;;;;;;;;;;;;;;;20.47;45.81;102286.38;5018928;28;20236;-87
2022/09/22 05:39:56;;;;;;;;;;;;;;;20.57;45.39;102279.44;5020900;28;20060;-87
2022/09/22 05:42:22;;;;;;;;;;;;;;;20.60;45.31;102290.03;5002518;28;19917;-87
2022/09/22 05:44:47;;;;;;;;;;;;;;;20.66;45.38;102283.38;5019565;28;19924;-87
2022/09/22 05:47:13;;;;;;;;;;;;;;;20.68;45.34;102284.13;5018614;28;21567;-87
2022/09/22 05:49:38;;;;;;;;;;;;;;;20.71;44.97;102280.41;5036252;28;20296;-87
2022/09/22 05:52:03;;;;;;;;;;;;;;;20.77;45.19;102285.41;5018949;28;19916;-86
2022/09/22 05:54:28;;;;;;;;;;;;;;;20.89;44.72;102289.97;5012760;28;19924;-86
2022/09/22 05:56:54;;;;;;;;;;;;;;;20.95;44.58;102288.72;5020642;28;20003;-87
2022/09/22 05:59:19;;;;;;;;;;;;;;;21.03;44.50;102286.34;5019235;28;19927;-87
2022/09/22 06:01:45;;;;;;;;;;;;;;;21.13;44.74;102289.31;5020792;28;19920;-87
2022/09/22 06:04:13;;;;;;;;;;;;;;;21.24;44.45;102284.06;5035343;28;19924;-86
2022/09/22 06:06:38;;;;;;;;;;;;;;;21.36;44.47;102278.84;5018773;28;19943;-88
2022/09/22 06:09:04;;;;;;;;;;;;;;;21.47;44.36;102284.34;5020426;28;19925;-87
2022/09/22 06:11:29;;;;;;;;;;;;;;;21.57;43.55;102284.59;5019306;28;19974;-88
2022/09/22 06:13:54;;;;;;;;;;;;;;;21.64;43.42;102276.94;5020252;28;20615;-88
2022/09/22 06:16:19;;;;;;;;;;;;;;;21.68;43.56;102278.47;5021707;28;19924;-88
2022/09/22 06:18:46;;;;;;;;;;;;;;;21.67;43.85;102280.28;5017691;28;19924;-87
2022/09/22 06:21:11;;;;;;;;;;;;;;;21.63;43.80;102283.31;5018743;28;20346;-88
2022/09/22 06:23:38;;;;;;;;;;;;;;;21.54;43.95;102280.25;5034350;28;19935;-87
2022/09/22 06:26:03;;;;;;;;;;;;;;;21.49;44.30;102273.47;5039694;28;20413;-86
2022/09/22 06:28:28;;;;;;;;;;;;;;;21.44;44.26;102282.72;5038989;28;19924;-87
2022/09/22 06:30:56;;;;;;;;;;;;;;;21.39;44.67;102273.22;5041486;28;20644;-81
2022/09/22 06:33:22;;;;;;;;;;;;;;;21.37;44.74;102276.03;5042859;28;19931;-87
2022/09/22 06:35:48;;;;;;;;;;;;;;;21.37;44.24;102280.53;5039028;28;20124;-87
2022/09/22 06:38:14;;;;;;;;;;;;;;;21.35;44.70;102272.56;5038785;28;19916;-86
2022/09/22 06:40:40;;;;;;;;;;;;;;;21.36;44.72;102276.97;5040896;28;19916;-86
2022/09/22 06:43:13;;;;;;;;;;;;;;;21.36;44.40;102284.22;5044658;28;20344;-85
2022/09/22 06:45:39;;;;;;;;;;;;;;;21.33;44.18;102276.31;5044663;28;19935;-84
2022/09/22 06:48:06;;;;;;;;;;;;;;;21.31;44.46;102276.44;5024051;28;19924;-85
2022/09/22 06:50:31;;;;;;;;;;;;;;;21.30;44.48;102279.25;5022637;28;19920;-86
2022/09/22 06:53:00;;;;;;;;;;;;;;;21.26;44.85;102268.66;5021783;28;19931;-84
2022/09/22 06:55:26;;;;;;;;;;;;;;;21.25;44.71;102264.25;5025791;28;20685;-86
2022/09/22 06:57:51;;;;;;;;;;;;;;;21.26;44.37;102260.56;5047708;28;19921;-86
2022/09/22 07:00:17;;;;;;;;;;;;;;;21.21;44.46;102262.72;5029938;28;20179;-87
2022/09/22 07:02:42;;;;;;;;;;;;;;;21.20;44.71;102266.41;5043803;28;19931;-86
2022/09/22 07:05:07;;;;;;;;;;;;;;;21.17;44.33;102263.91;5041025;28;20336;-87
2022/09/22 07:07:33;;;;;;;;;;;;;;;21.19;44.59;102259.28;5024402;28;19924;-87
2022/09/22 07:10:01;;;;;;;;;;;;;;;21.20;44.87;102261.00;5023192;28;19955;-87
2022/09/22 07:12:27;;;;;;;;;;;;;;;21.21;44.33;102264.56;5041514;28;20060;-86
2022/09/22 07:14:55;;;;;;;;;;;;;;;21.19;44.38;102258.41;5023704;28;20427;-87
2022/09/22 07:17:20;;;;;;;;;;;;;;;21.18;44.65;102265.63;5035625;28;20438;-87
2022/09/22 07:19:46;;;;;;;;;;;;;;;21.15;44.28;102265.84;5022435;28;20571;-87
2022/09/22 07:22:13;;;;;;;;;;;;;;;21.15;44.46;102265.84;5040129;28;19924;-86
2022/09/22 07:24:38;;;;;;;;;;;;;;;21.15;44.33;102256.88;5055394;28;20585;-86
2022/09/22 07:27:05;;;;;;;;;;;;;;;21.15;44.78;102254.19;5040765;28;19930;-87
2022/09/22 07:29:31;;;;;;;;;;;;;;;21.13;44.38;102257.00;5040075;28;20833;-87
2022/09/22 07:31:58;;;;;;;;;;;;;;;21.11;44.22;102253.53;5038714;28;21063;-86
2022/09/22 07:34:26;;;;;;;;;;;;;;;21.12;44.43;102257.97;5005008;28;19924;-87
2022/09/22 07:36:52;;;;;;;;;;;;;;;21.14;44.58;102255.16;5040597;28;20505;-86
2022/09/22 07:39:17;;;;;;;;;;;;;;;21.14;44.21;102255.16;5039306;28;19926;-86
2022/09/22 07:41:46;;;;;;;;;;;;;;;21.16;44.33;102258.63;5022241;28;19947;-85
2022/09/22 07:46:56;;;;;;;;;;;;;;;21.20;44.64;102261.00;5040459;28;19923;-87
2022/09/22 07:49:22;;;;;;;;;;;;;;;21.22;44.18;102253.66;5037756;28;19928;-86
2022/09/22 07:51:48;;;;;;;;;;;;;;;21.23;44.10;102252.72;5040349;28;19921;-86
2022/09/22 07:54:14;;;;;;;;;;;;;;;21.25;44.65;102255.28;5022067;28;20720;-87
2022/09/22 07:56:40;;;;;;;;;;;;;;;21.27;44.66;102247.97;5021959;28;19920;-87
2022/09/22 07:59:09;;;;;;;;;;;;;;;21.26;44.33;102247.09;5039504;28;20035;-86
2022/09/22 08:01:35;;;;;;;;;;;;;;;21.26;44.34;102246.25;5039966;28;20030;-87
2022/09/22 08:04:01;;;;;;;;;;;;;;;21.26;44.22;102251.63;5040164;28;22476;-88
2022/09/22 08:06:27;;;;;;;;;;;;;;;21.27;44.82;102250.69;5018735;28;19965;-87
2022/09/22 08:08:55;;;;;;;;;;;;;;;21.26;44.35;102248.94;5020769;28;20162;-88
2022/09/22 08:11:26;;;;;;;;;;;;;;;21.27;44.39;102235.38;5022806;28;19927;-87
2022/09/22 08:13:54;;;;;;;;;;;;;;;21.30;44.17;102238.81;5023288;28;19927;-88
2022/09/22 08:16:21;;;;;;;;;;;;;;;21.31;44.31;102240.56;5042626;28;20211;-87
2022/09/22 08:18:54;;;;;;;;;;;;;;;21.32;44.38;102242.25;5043513;28;19920;-88
2022/09/22 08:21:20;;;;;;;;;;;;;;;21.34;44.38;102240.34;5023841;28;20407;-88
2022/09/22 08:23:45;;;;;;;;;;;;;;;21.34;44.45;102238.50;5004390;28;19936;-88
2022/09/22 08:26:11;;;;;;;;;;;;;;;21.35;44.70;102233.97;5000699;28;20357;-88
2022/09/22 08:28:36;;;;;;;;;;;;;;;21.37;44.82;102227.53;5005122;28;21289;-87
2022/09/22 08:31:02;;;;;;;;;;;;;;;21.37;44.69;102232.03;5002275;28;20106;-87
2022/09/22 08:33:33;;;;;;;;;;;;;;;21.38;44.27;102223.88;5003248;28;20343;-88
2022/09/22 08:36:02;;;;;;;;;;;;;;;21.38;44.81;102231.06;5015984;28;20472;-87
2022/09/22 08:38:29;;;;;;;;;;;;;;;21.38;44.67;102231.94;5003522;28;20459;-86
2022/09/22 08:41:17;;;;;;;;;;;;;;;21.40;44.41;102229.13;5003055;28;19921;-87
2022/09/22 08:43:57;;;;;;;;;;;;;;;21.41;45.01;102231.72;5003363;28;20315;-88
2022/09/22 08:46:42;;;;;;;;;;;;;;;21.42;44.51;102232.56;5004764;28;19923;-87
2022/09/22 08:52:08;;;;;;;;;;;;;;;21.43;44.66;102228.91;5001978;28;19928;-87
2022/09/22 08:54:34;;;;;;;;;;;;;;;21.44;45.15;102226.16;5004935;28;19925;-87
2022/09/22 08:57:10;;;;;;;;;;;;;;;21.47;45.10;102224.19;5006247;28;19916;-87
2022/09/22 08:59:50;;;;;;;;;;;;;;;21.48;44.99;102223.22;5001657;28;20205;-86
2022/09/22 09:02:41;;;;;;;;;;;;;;;21.51;44.48;102221.19;5012039;28;20550;-86
2022/09/22 09:05:22;;;;;;;;;;;;;;;21.52;45.00;102224.72;5002107;28;20436;-87
2022/09/22 09:07:57;;;;;;;;;;;;;;;21.55;45.11;102224.56;5007599;28;20569;-85
2022/09/22 09:10:37;;;;;;;;;;;;;;;21.62;45.28;102233.94;5006669;28;19931;-80
2022/09/22 09:13:03;;;;;;;;;;;;;;;21.72;44.55;102223.38;4998477;28;20249;-77
2022/09/22 09:15:28;;;;;;;;;;;;;;;21.76;44.96;102225.75;4995106;28;20320;-76
2022/09/22 09:17:55;;;;;;;;;;;;;;;21.82;44.46;102243.31;4999465;28;19924;-76
2022/09/22 09:20:31;;;;;;;;;;;;;;;21.86;44.36;102230.50;4999926;28;19920;-78
2022/09/22 09:22:58;;;;;;;;;;;;;;;21.89;44.57;102232.94;5016261;28;19923;-76
2022/09/22 09:25:41;;;;;;;;;;;;;;;21.92;44.91;102238.16;5038276;28;20198;-74
2022/09/22 09:28:21;;;;;;;;;;;;;;;21.98;44.60;102232.28;5038816;28;19924;-76
2022/09/22 09:30:50;;;;;;;;;;;;;;;22.04;44.49;102234.56;5038263;28;19916;-73
2022/09/22 09:33:21;;;;;;;;;;;;;;;22.07;44.44;102233.47;5039974;28;20325;-74
2022/09/22 09:35:52;;;;;;;;;;;;;;;22.08;44.66;102230.69;5038524;28;20022;-75
2022/09/22 09:38:24;;;;;;;;;;;;;;;22.10;44.27;102236.81;5022814;28;19924;-75
2022/09/22 09:40:54;;;;;;;;;;;;;;;22.12;44.54;102233.16;5042331;28;19928;-75
2022/09/22 09:43:21;;;;;;;;;;;;;;;22.14;44.52;102232.06;5036884;28;20319;-75
2022/09/22 09:46:02;;;;;;;;;;;;;;;22.15;44.22;102230.22;5035354;28;19925;-75
2022/09/22 09:48:31;;;;;;;;;;;;;;;22.18;44.68;102230.00;5039915;28;20420;-71
2022/09/22 09:51:00;;;;;;;;;;;;;;;21.96;45.23;102227.97;5040883;28;20443;-77
2022/09/22 09:53:30;;;;;;;;;;;;;;;21.77;45.87;102223.91;5041696;28;19917;-72
2022/09/22 09:55:55;;;;;;;;;;;;;;;21.79;46.05;102221.09;5039001;28;20085;-73
2022/09/22 10:01:05;;;;;;;;;;;;;;;21.80;45.94;102217.44;5042732;28;19927;-74
2022/09/22 10:03:39;;;;;;;;;;;;;;;21.82;45.91;102213.66;5046047;28;19963;-74
2022/09/22 10:06:06;;;;;;;;;;;;;;;21.87;45.67;102213.34;5044415;28;20293;-73
2022/09/22 10:08:35;;;;;;;;;;;;;;;21.89;45.77;102212.25;5041805;28;20162;-74
2022/09/22 10:11:01;;;;;;;;;;;;;;;21.91;45.65;102210.31;5040299;28;19953;-74
2022/09/22 10:13:34;;;;;;;;;;;;;;;21.96;46.01;102204.59;5038567;28;20658;-73
2022/09/22 10:16:05;;;;;;;;;;;;;;;21.97;45.75;102206.31;5040437;28;20017;-72
2022/09/22 10:18:34;;;;;;;;;;;;;;;22.00;46.04;102195.28;5042112;28;21209;-73
2022/09/22 10:21:04;;;;;;;;;;;;;;;22.04;45.86;102193.25;5046595;28;19916;-73
2022/09/22 10:23:31;;;;;;;;;;;;;;;22.06;45.72;102194.00;5042238;28;20576;-75
2022/09/22 10:26:15;;;;;;;;;;;;;;;22.09;45.86;102200.00;5042257;28;21827;-75
2022/09/22 10:28:41;;;;;;;;;;;;;;;22.13;46.28;102197.13;5042359;28;20127;-75
2022/09/22 10:31:16;;;;;;;;;;;;;;;22.15;46.36;102196.03;5042278;28;19924;-75
2022/09/22 10:33:52;;;;;;;;;;;;;;;22.19;46.28;102186.72;5042618;28;20455;-76
2022/09/22 10:36:17;;;;;;;;;;;;;;;22.23;46.26;102184.69;5043911;28;20408;-73
2022/09/22 10:38:43;;;;;;;;;;;;;;;22.26;46.38;102187.13;5044757;28;19988;-74
2022/09/22 10:41:21;;;;;;;;;;;;;;;22.29;46.40;102186.06;5025383;28;19962;-74
2022/09/22 10:43:51;;;;;;;;;;;;;;;22.32;46.25;102178.59;5043818;28;19942;-70
2022/09/22 10:46:43;;;;;;;;;;;;;;;22.37;46.09;102175.59;5043710;28;20291;-72
2022/09/22 10:49:20;;;;;;;;;;;;;;;22.35;46.37;102170.25;5047130;28;19965;-73
2022/09/22 10:51:45;;;;;;;;;;;;;;;22.35;46.51;102170.25;5045709;28;19939;-74
2022/09/22 10:54:13;;;;;;;;;;;;;;;22.44;45.91;102171.44;5040150;28;20253;-75
2022/09/22 10:56:41;;;;;;;;;;;;;;;22.46;45.60;102168.66;5018613;28;20355;-73
2022/09/22 10:59:25;;;;;;;;;;;;;;;22.47;45.79;102168.53;5043209;28;19920;-90
2022/09/22 11:01:53;;;;;;;;;;;;;;;22.46;46.03;102161.41;5028113;28;20014;-73
2022/09/22 11:04:21;;;;;;;;;;;;;;;22.48;45.93;102162.19;5045351;28;19920;-74
2022/09/22 11:12:41;;;;;;;;;;;;;;;22.53;45.69;102159.09;5043816;28;20052;-76
2022/09/22 11:15:16;;;;;;;;;;;;;;;22.55;45.69;102160.72;5043961;28;19976;-75
2022/09/22 11:17:59;;;;;;;;;;;;;;;22.56;45.68;102158.91;5043466;28;21387;-73
2022/09/22 11:20:24;;;;;;;;;;;;;;;22.58;45.29;102162.31;5046725;28;19994;-77
2022/09/22 11:23:07;;;;;;;;;;;;;;;22.61;45.26;102159.41;5045699;28;22023;-75
2022/09/22 11:25:54;;;;;;;;;;;;;;;22.59;45.33;102156.81;5042809;28;19920;-77
2022/09/22 11:28:42;;;;;;;;;;;;;;;22.62;45.33;102161.09;5043185;28;19962;-77
2022/09/22 11:31:16;;;;;;;;;;;;;;;22.63;45.20;102149.34;5025498;28;19920;-76
2022/09/22 11:33:56;;;;;;;;;;;;;;;22.65;45.37;102144.69;5044124;28;19942;-77
2022/09/22 11:36:22;;;;;;;;;;;;;;;22.67;45.16;102142.72;5044035;28;21361;-76
2022/09/22 11:38:59;;;;;;;;;;;;;;;22.68;45.50;102128.25;5043412;28;19921;-77
2022/09/22 11:41:44;;;;;;;;;;;;;;;22.70;45.15;102134.41;5043137;28;19931;-77
2022/09/22 11:44:21;;;;;;;;;;;;;;;22.71;45.09;102130.72;5045147;28;20473;-76
2022/09/22 11:46:49;;;;;;;;;;;;;;;22.73;45.21;102125.22;5043664;28;19966;-76
2022/09/22 11:49:38;;;;;;;;;;;;;;;22.74;45.18;102113.44;5042100;28;19924;-76
2022/09/22 11:52:06;;;;;;;;;;;;;;;22.77;45.16;102121.28;5017896;28;20284;-76
2022/09/22 11:54:31;;;;;;;;;;;;;;;22.79;45.37;102118.47;5047925;28;19920;-76
2022/09/22 11:56:59;;;;;;;;;;;;;;;22.81;45.13;102113.81;5047448;28;19923;-76
2022/09/22 11:59:38;;;;;;;;;;;;;;;22.80;44.96;102121.06;5049181;28;19967;-76
2022/09/22 12:02:14;;;;;;;;;;;;;;;22.83;45.33;102112.72;5048239;28;19920;-75
2022/09/22 12:04:42;;;;;;;;;;;;;;;22.90;45.13;102111.28;5047468;28;21482;-75
2022/09/22 12:07:23;;;;;;;;;;;;;;;23.00;45.06;102105.16;5047569;28;20019;-75
2022/09/22 12:09:55;;;;;;;;;;;;;;;23.06;45.00;102105.53;5046573;28;19920;-73
2022/09/22 12:12:22;;;;;;;;;;;;;;;23.09;44.88;102099.03;5045704;28;19927;-73
2022/09/22 12:14:50;;;;;;;;;;;;;;;23.13;44.95;102087.00;5036930;28;20387;-71
2022/09/22 12:17:20;;;;;;;;;;;;;;;23.17;44.79;102093.06;5039886;28;19920;-70
2022/09/22 12:19:48;;;;;;;;;;;;;;;23.20;44.49;102088.28;5039263;28;19974;-70
2022/09/22 12:22:34;;;;;;;;;;;;;;;23.21;45.17;102081.88;5020956;28;20147;-72
2022/09/22 12:25:00;;;;;;;;;;;;;;;23.24;44.74;102078.09;5039322;28;20413;-73
2022/09/22 12:27:26;;;;;;;;;;;;;;;23.29;44.49;102078.56;5024083;28;19920;-72
2022/09/22 12:29:58;;;;;;;;;;;;;;;23.31;44.65;102075.75;5015795;28;19999;-71
2022/09/22 12:32:33;;;;;;;;;;;;;;;23.33;44.49;102080.03;5040954;28;20678;-71
2022/09/22 12:34:58;;;;;;;;;;;;;;;23.36;44.72;102070.84;5040850;28;19927;-71
2022/09/22 12:37:28;;;;;;;;;;;;;;;23.37;44.82;102067.16;5041497;28;19920;-72
2022/09/22 12:39:55;;;;;;;;;;;;;;;23.37;44.48;102059.88;5041130;28;19924;-72
2022/09/22 12:42:27;;;;;;;;;;;;;;;23.40;44.53;102056.09;5040007;28;19931;-72
2022/09/22 12:44:52;;;;;;;;;;;;;;;23.42;44.52;102050.56;5040831;28;19924;-72
2022/09/22 12:47:21;;;;;;;;;;;;;;;23.44;44.44;102059.41;5039851;28;19956;-71
2022/09/22 12:49:48;;;;;;;;;;;;;;;23.45;44.47;102051.16;5040119;28;21017;-72
2022/09/22 12:52:32;;;;;;;;;;;;;;;23.43;44.59;102046.88;5039532;28;19917;-73
2022/09/22 12:55:16;;;;;;;;;;;;;;;23.39;44.59;102048.97;5040022;28;19973;-78
2022/09/22 12:57:43;;;;;;;;;;;;;;;23.42;44.48;102043.31;5042002;28;19927;-74
2022/09/22 13:00:11;;;;;;;;;;;;;;;23.45;44.32;102047.63;5040610;28;20480;-74